sensor_id;sensor_type;location;lat;lon;timestamp;P1;durP1;ratioP1;P2;durP2;ratioP2
62419;SDS011;48460;51.616;5.426;2022-08-19T00:00:18;14.13;;;11.65;;
62419;SDS011;48460;51.616;5.426;2022-08-19T00:02:44;14.55;;;11.32;;
62419;SDS011;48460;51.616;5.426;2022-08-19T00:05:10;12.18;;;10.85;;
62419;SDS011;48460;51.616;5.426;2022-08-19T00:07:36;17.35;;;11.10;;
62419;SDS011;48460;51.616;5.426;2022-08-19T00:10:03;12.75;;;9.82;;
62419;SDS011;48460;51.616;5.426;2022-08-19T00:12:32;19.48;;;11.38;;
62419;SDS011;48460;51.616;5.426;2022-08-19T00:14:58;14.60;;;10.77;;
62419;SDS011;48460;51.616;5.426;2022-08-19T00:17:25;16.15;;;11.35;;
62419;SDS011;48460;51.616;5.426;2022-08-19T00:19:50;22.25;;;12.25;;
62419;SDS011;48460;51.616;5.426;2022-08-19T00:22:16;16.95;;;9.95;;
62419;SDS011;48460;51.616;5.426;2022-08-19T00:24:43;15.48;;;10.93;;
62419;SDS011;48460;51.616;5.426;2022-08-19T00:27:12;16.15;;;11.80;;
62419;SDS011;48460;51.616;5.426;2022-08-19T00:29:37;18.80;;;12.73;;
62419;SDS011;48460;51.616;5.426;2022-08-19T00:32:03;16.92;;;12.25;;
62419;SDS011;48460;51.616;5.426;2022-08-19T00:34:32;14.23;;;11.52;;
62419;SDS011;48460;51.616;5.426;2022-08-19T00:36:58;18.80;;;12.52;;
62419;SDS011;48460;51.616;5.426;2022-08-19T00:39:23;17.02;;;12.90;;
62419;SDS011;48460;51.616;5.426;2022-08-19T00:41:50;16.50;;;13.02;;
62419;SDS011;48460;51.616;5.426;2022-08-19T00:44:17;20.48;;;15.68;;
62419;SDS011;48460;51.616;5.426;2022-08-19T00:46:49;18.88;;;15.07;;
62419;SDS011;48460;51.616;5.426;2022-08-19T00:51:53;21.10;;;16.50;;
62419;SDS011;48460;51.616;5.426;2022-08-19T00:56:49;21.40;;;15.32;;
62419;SDS011;48460;51.616;5.426;2022-08-19T00:59:16;18.80;;;14.43;;
62419;SDS011;48460;51.616;5.426;2022-08-19T01:01:43;22.05;;;14.75;;
62419;SDS011;48460;51.616;5.426;2022-08-19T01:04:10;25.88;;;17.88;;
62419;SDS011;48460;51.616;5.426;2022-08-19T01:06:37;24.80;;;16.15;;
62419;SDS011;48460;51.616;5.426;2022-08-19T01:09:04;24.35;;;18.20;;
62419;SDS011;48460;51.616;5.426;2022-08-19T01:11:31;23.40;;;15.30;;
62419;SDS011;48460;51.616;5.426;2022-08-19T01:14:00;22.27;;;16.00;;
62419;SDS011;48460;51.616;5.426;2022-08-19T01:16:27;21.55;;;15.82;;
62419;SDS011;48460;51.616;5.426;2022-08-19T01:18:54;24.00;;;17.13;;
62419;SDS011;48460;51.616;5.426;2022-08-19T01:23:47;21.90;;;15.95;;
62419;SDS011;48460;51.616;5.426;2022-08-19T01:26:15;21.92;;;16.00;;
62419;SDS011;48460;51.616;5.426;2022-08-19T01:28:47;23.25;;;16.15;;
62419;SDS011;48460;51.616;5.426;2022-08-19T01:31:18;23.48;;;17.52;;
62419;SDS011;48460;51.616;5.426;2022-08-19T01:33:47;28.90;;;18.95;;
62419;SDS011;48460;51.616;5.426;2022-08-19T01:36:15;28.98;;;19.70;;
62419;SDS011;48460;51.616;5.426;2022-08-19T01:38:47;31.55;;;19.52;;
62419;SDS011;48460;51.616;5.426;2022-08-19T01:41:13;34.03;;;21.92;;
62419;SDS011;48460;51.616;5.426;2022-08-19T01:43:38;33.47;;;21.85;;
62419;SDS011;48460;51.616;5.426;2022-08-19T01:46:04;29.58;;;21.48;;
62419;SDS011;48460;51.616;5.426;2022-08-19T01:48:33;26.60;;;19.85;;
62419;SDS011;48460;51.616;5.426;2022-08-19T01:51:01;30.67;;;20.80;;
62419;SDS011;48460;51.616;5.426;2022-08-19T01:53:27;30.65;;;21.95;;
62419;SDS011;48460;51.616;5.426;2022-08-19T01:55:52;28.27;;;19.00;;
62419;SDS011;48460;51.616;5.426;2022-08-19T01:58:19;26.70;;;17.85;;
62419;SDS011;48460;51.616;5.426;2022-08-19T02:00:49;31.95;;;20.05;;
62419;SDS011;48460;51.616;5.426;2022-08-19T02:03:14;33.72;;;21.42;;
62419;SDS011;48460;51.616;5.426;2022-08-19T02:05:41;37.30;;;23.40;;
62419;SDS011;48460;51.616;5.426;2022-08-19T02:08:08;29.83;;;21.10;;
62419;SDS011;48460;51.616;5.426;2022-08-19T02:10:37;31.23;;;21.13;;
62419;SDS011;48460;51.616;5.426;2022-08-19T02:13:04;28.98;;;21.15;;
62419;SDS011;48460;51.616;5.426;2022-08-19T02:15:30;33.83;;;22.60;;
62419;SDS011;48460;51.616;5.426;2022-08-19T02:17:55;39.53;;;23.40;;
62419;SDS011;48460;51.616;5.426;2022-08-19T02:20:20;34.67;;;23.05;;
62419;SDS011;48460;51.616;5.426;2022-08-19T02:22:47;36.30;;;23.02;;
62419;SDS011;48460;51.616;5.426;2022-08-19T02:25:15;33.97;;;22.67;;
62419;SDS011;48460;51.616;5.426;2022-08-19T02:27:41;32.70;;;22.13;;
62419;SDS011;48460;51.616;5.426;2022-08-19T02:30:08;33.03;;;22.17;;
62419;SDS011;48460;51.616;5.426;2022-08-19T02:32:36;30.33;;;21.58;;
62419;SDS011;48460;51.616;5.426;2022-08-19T02:35:02;34.65;;;22.90;;
62419;SDS011;48460;51.616;5.426;2022-08-19T02:37:28;39.33;;;25.38;;
62419;SDS011;48460;51.616;5.426;2022-08-19T02:40:12;33.97;;;24.17;;
62419;SDS011;48460;51.616;5.426;2022-08-19T02:42:37;39.65;;;26.15;;
62419;SDS011;48460;51.616;5.426;2022-08-19T02:45:03;37.33;;;24.88;;
62419;SDS011;48460;51.616;5.426;2022-08-19T02:47:29;43.22;;;26.05;;
62419;SDS011;48460;51.616;5.426;2022-08-19T02:49:55;34.33;;;24.38;;
62419;SDS011;48460;51.616;5.426;2022-08-19T02:52:20;39.47;;;24.40;;
62419;SDS011;48460;51.616;5.426;2022-08-19T02:54:48;40.90;;;24.95;;
62419;SDS011;48460;51.616;5.426;2022-08-19T02:57:14;40.97;;;25.65;;
62419;SDS011;48460;51.616;5.426;2022-08-19T02:59:39;41.00;;;24.90;;
62419;SDS011;48460;51.616;5.426;2022-08-19T03:02:05;33.80;;;24.23;;
62419;SDS011;48460;51.616;5.426;2022-08-19T03:04:30;34.88;;;22.92;;
62419;SDS011;48460;51.616;5.426;2022-08-19T03:06:55;31.40;;;24.00;;
62419;SDS011;48460;51.616;5.426;2022-08-19T03:09:21;31.52;;;22.48;;
62419;SDS011;48460;51.616;5.426;2022-08-19T03:11:47;32.45;;;22.58;;
62419;SDS011;48460;51.616;5.426;2022-08-19T03:14:12;40.97;;;23.38;;
62419;SDS011;48460;51.616;5.426;2022-08-19T03:16:45;31.20;;;22.33;;
62419;SDS011;48460;51.616;5.426;2022-08-19T03:19:18;32.10;;;21.67;;
62419;SDS011;48460;51.616;5.426;2022-08-19T03:21:46;37.97;;;23.80;;
62419;SDS011;48460;51.616;5.426;2022-08-19T03:24:13;31.10;;;22.13;;
62419;SDS011;48460;51.616;5.426;2022-08-19T03:26:46;36.03;;;22.48;;
62419;SDS011;48460;51.616;5.426;2022-08-19T03:29:14;35.90;;;22.70;;
62419;SDS011;48460;51.616;5.426;2022-08-19T03:31:41;32.60;;;22.83;;
62419;SDS011;48460;51.616;5.426;2022-08-19T03:34:08;32.63;;;23.73;;
62419;SDS011;48460;51.616;5.426;2022-08-19T03:36:39;35.05;;;22.85;;
62419;SDS011;48460;51.616;5.426;2022-08-19T03:39:04;32.42;;;23.15;;
62419;SDS011;48460;51.616;5.426;2022-08-19T03:41:30;33.15;;;22.45;;
62419;SDS011;48460;51.616;5.426;2022-08-19T03:43:58;33.20;;;23.52;;
62419;SDS011;48460;51.616;5.426;2022-08-19T03:46:25;32.92;;;22.67;;
62419;SDS011;48460;51.616;5.426;2022-08-19T03:48:53;37.22;;;23.15;;
62419;SDS011;48460;51.616;5.426;2022-08-19T03:51:25;33.33;;;23.55;;
62419;SDS011;48460;51.616;5.426;2022-08-19T03:56:18;36.08;;;22.90;;
62419;SDS011;48460;51.616;5.426;2022-08-19T03:58:44;35.20;;;24.77;;
62419;SDS011;48460;51.616;5.426;2022-08-19T04:01:12;37.95;;;23.33;;
62419;SDS011;48460;51.616;5.426;2022-08-19T04:03:42;35.00;;;23.70;;
62419;SDS011;48460;51.616;5.426;2022-08-19T04:06:13;34.35;;;23.58;;
62419;SDS011;48460;51.616;5.426;2022-08-19T04:08:43;35.88;;;24.10;;
62419;SDS011;48460;51.616;5.426;2022-08-19T04:11:12;37.65;;;25.67;;
62419;SDS011;48460;51.616;5.426;2022-08-19T04:13:41;35.63;;;25.63;;
62419;SDS011;48460;51.616;5.426;2022-08-19T04:16:10;34.13;;;24.52;;
62419;SDS011;48460;51.616;5.426;2022-08-19T04:18:36;36.35;;;24.20;;
62419;SDS011;48460;51.616;5.426;2022-08-19T04:21:03;35.78;;;24.27;;
62419;SDS011;48460;51.616;5.426;2022-08-19T04:23:30;34.72;;;23.80;;
62419;SDS011;48460;51.616;5.426;2022-08-19T04:25:56;39.60;;;23.90;;
62419;SDS011;48460;51.616;5.426;2022-08-19T04:28:25;32.45;;;23.58;;
62419;SDS011;48460;51.616;5.426;2022-08-19T04:30:52;33.88;;;23.20;;
62419;SDS011;48460;51.616;5.426;2022-08-19T04:33:19;31.55;;;21.45;;
62419;SDS011;48460;51.616;5.426;2022-08-19T04:35:50;32.17;;;22.00;;
62419;SDS011;48460;51.616;5.426;2022-08-19T04:38:17;34.08;;;23.85;;
62419;SDS011;48460;51.616;5.426;2022-08-19T04:40:49;31.92;;;22.67;;
62419;SDS011;48460;51.616;5.426;2022-08-19T04:43:35;34.22;;;23.55;;
62419;SDS011;48460;51.616;5.426;2022-08-19T04:46:12;35.13;;;23.10;;
62419;SDS011;48460;51.616;5.426;2022-08-19T04:48:38;33.63;;;21.95;;
62419;SDS011;48460;51.616;5.426;2022-08-19T04:51:08;35.35;;;23.40;;
62419;SDS011;48460;51.616;5.426;2022-08-19T04:53:37;35.13;;;21.77;;
62419;SDS011;48460;51.616;5.426;2022-08-19T04:56:09;35.95;;;23.60;;
62419;SDS011;48460;51.616;5.426;2022-08-19T04:58:37;35.35;;;21.77;;
62419;SDS011;48460;51.616;5.426;2022-08-19T05:01:03;33.80;;;22.38;;
62419;SDS011;48460;51.616;5.426;2022-08-19T05:03:29;32.72;;;21.73;;
62419;SDS011;48460;51.616;5.426;2022-08-19T05:05:58;32.55;;;22.20;;
62419;SDS011;48460;51.616;5.426;2022-08-19T05:08:33;28.52;;;21.35;;
62419;SDS011;48460;51.616;5.426;2022-08-19T05:11:00;34.33;;;21.88;;
62419;SDS011;48460;51.616;5.426;2022-08-19T05:13:26;36.08;;;24.40;;
62419;SDS011;48460;51.616;5.426;2022-08-19T05:15:55;32.53;;;22.67;;
62419;SDS011;48460;51.616;5.426;2022-08-19T05:18:22;39.70;;;25.50;;
62419;SDS011;48460;51.616;5.426;2022-08-19T05:21:07;40.63;;;24.92;;
62419;SDS011;48460;51.616;5.426;2022-08-19T05:23:53;44.83;;;28.15;;
62419;SDS011;48460;51.616;5.426;2022-08-19T05:26:18;49.78;;;29.58;;
62419;SDS011;48460;51.616;5.426;2022-08-19T05:28:43;55.85;;;32.67;;
62419;SDS011;48460;51.616;5.426;2022-08-19T05:31:09;55.00;;;32.78;;
62419;SDS011;48460;51.616;5.426;2022-08-19T05:33:34;53.65;;;32.95;;
62419;SDS011;48460;51.616;5.426;2022-08-19T05:36:00;59.92;;;35.10;;
62419;SDS011;48460;51.616;5.426;2022-08-19T05:38:27;61.75;;;37.35;;
62419;SDS011;48460;51.616;5.426;2022-08-19T05:40:53;77.43;;;40.38;;
62419;SDS011;48460;51.616;5.426;2022-08-19T05:43:19;73.95;;;40.08;;
62419;SDS011;48460;51.616;5.426;2022-08-19T05:45:44;79.85;;;41.72;;
62419;SDS011;48460;51.616;5.426;2022-08-19T05:48:10;78.88;;;43.25;;
62419;SDS011;48460;51.616;5.426;2022-08-19T05:50:38;78.18;;;42.80;;
62419;SDS011;48460;51.616;5.426;2022-08-19T05:53:04;89.80;;;45.53;;
62419;SDS011;48460;51.616;5.426;2022-08-19T05:55:30;86.28;;;43.85;;
62419;SDS011;48460;51.616;5.426;2022-08-19T05:57:56;89.97;;;47.13;;
62419;SDS011;48460;51.616;5.426;2022-08-19T06:00:24;91.50;;;47.65;;
62419;SDS011;48460;51.616;5.426;2022-08-19T06:02:49;89.28;;;48.05;;
62419;SDS011;48460;51.616;5.426;2022-08-19T06:05:15;92.53;;;48.72;;
62419;SDS011;48460;51.616;5.426;2022-08-19T06:07:41;94.15;;;47.08;;
62419;SDS011;48460;51.616;5.426;2022-08-19T06:10:09;100.10;;;50.38;;
62419;SDS011;48460;51.616;5.426;2022-08-19T06:12:36;94.18;;;49.17;;
62419;SDS011;48460;51.616;5.426;2022-08-19T06:15:11;90.95;;;47.47;;
62419;SDS011;48460;51.616;5.426;2022-08-19T06:17:38;91.50;;;47.65;;
62419;SDS011;48460;51.616;5.426;2022-08-19T06:20:05;90.07;;;47.33;;
62419;SDS011;48460;51.616;5.426;2022-08-19T06:22:37;85.53;;;45.67;;
62419;SDS011;48460;51.616;5.426;2022-08-19T06:27:29;84.60;;;45.42;;
62419;SDS011;48460;51.616;5.426;2022-08-19T06:29:56;82.43;;;45.17;;
62419;SDS011;48460;51.616;5.426;2022-08-19T06:32:21;84.93;;;46.35;;
62419;SDS011;48460;51.616;5.426;2022-08-19T06:34:46;80.35;;;44.60;;
62419;SDS011;48460;51.616;5.426;2022-08-19T06:37:12;84.22;;;45.90;;
62419;SDS011;48460;51.616;5.426;2022-08-19T06:39:39;80.20;;;45.13;;
62419;SDS011;48460;51.616;5.426;2022-08-19T06:42:06;77.93;;;43.83;;
62419;SDS011;48460;51.616;5.426;2022-08-19T06:44:35;83.25;;;45.55;;
62419;SDS011;48460;51.616;5.426;2022-08-19T06:47:02;90.25;;;46.30;;
62419;SDS011;48460;51.616;5.426;2022-08-19T06:49:29;70.88;;;39.42;;
62419;SDS011;48460;51.616;5.426;2022-08-19T06:51:58;72.78;;;41.60;;
62419;SDS011;48460;51.616;5.426;2022-08-19T06:54:24;78.85;;;42.15;;
62419;SDS011;48460;51.616;5.426;2022-08-19T06:56:51;78.68;;;42.53;;
62419;SDS011;48460;51.616;5.426;2022-08-19T06:59:18;74.80;;;42.55;;
62419;SDS011;48460;51.616;5.426;2022-08-19T07:01:49;75.82;;;41.47;;
62419;SDS011;48460;51.616;5.426;2022-08-19T07:04:17;84.25;;;42.60;;
62419;SDS011;48460;51.616;5.426;2022-08-19T07:06:48;82.75;;;42.38;;
62419;SDS011;48460;51.616;5.426;2022-08-19T07:09:15;83.65;;;43.33;;
62419;SDS011;48460;51.616;5.426;2022-08-19T07:11:46;87.10;;;44.78;;
62419;SDS011;48460;51.616;5.426;2022-08-19T07:14:14;83.13;;;44.85;;
62419;SDS011;48460;51.616;5.426;2022-08-19T07:16:42;89.80;;;44.35;;
62419;SDS011;48460;51.616;5.426;2022-08-19T07:19:09;85.97;;;45.72;;
62419;SDS011;48460;51.616;5.426;2022-08-19T07:21:35;94.43;;;50.65;;
62419;SDS011;48460;51.616;5.426;2022-08-19T07:24:00;92.97;;;48.20;;
62419;SDS011;48460;51.616;5.426;2022-08-19T07:26:28;97.43;;;48.25;;
62419;SDS011;48460;51.616;5.426;2022-08-19T07:28:58;87.43;;;44.97;;
62419;SDS011;48460;51.616;5.426;2022-08-19T07:31:25;94.07;;;46.05;;
62419;SDS011;48460;51.616;5.426;2022-08-19T07:33:53;89.28;;;45.15;;
62419;SDS011;48460;51.616;5.426;2022-08-19T07:36:22;80.80;;;44.85;;
62419;SDS011;48460;51.616;5.426;2022-08-19T07:38:49;91.03;;;45.53;;
62419;SDS011;48460;51.616;5.426;2022-08-19T07:41:17;91.68;;;46.03;;
62419;SDS011;48460;51.616;5.426;2022-08-19T07:43:45;86.10;;;44.90;;
62419;SDS011;48460;51.616;5.426;2022-08-19T07:46:12;84.40;;;43.08;;
62419;SDS011;48460;51.616;5.426;2022-08-19T07:48:41;82.70;;;41.35;;
62419;SDS011;48460;51.616;5.426;2022-08-19T07:51:08;85.78;;;44.78;;
62419;SDS011;48460;51.616;5.426;2022-08-19T07:53:35;84.55;;;43.60;;
62419;SDS011;48460;51.616;5.426;2022-08-19T07:56:02;80.72;;;42.55;;
62419;SDS011;48460;51.616;5.426;2022-08-19T07:58:33;73.50;;;40.60;;
62419;SDS011;48460;51.616;5.426;2022-08-19T08:01:00;75.18;;;39.40;;
62419;SDS011;48460;51.616;5.426;2022-08-19T08:03:27;74.22;;;38.17;;
62419;SDS011;48460;51.616;5.426;2022-08-19T08:06:12;85.15;;;39.80;;
62419;SDS011;48460;51.616;5.426;2022-08-19T08:09:03;78.28;;;39.05;;
62419;SDS011;48460;51.616;5.426;2022-08-19T08:14:44;75.95;;;40.03;;
62419;SDS011;48460;51.616;5.426;2022-08-19T08:17:12;72.88;;;41.40;;
62419;SDS011;48460;51.616;5.426;2022-08-19T08:19:40;73.85;;;39.70;;
62419;SDS011;48460;51.616;5.426;2022-08-19T08:22:09;81.78;;;43.25;;
62419;SDS011;48460;51.616;5.426;2022-08-19T08:25:09;83.65;;;43.55;;
62419;SDS011;48460;51.616;5.426;2022-08-19T08:27:41;86.13;;;44.22;;
62419;SDS011;48460;51.616;5.426;2022-08-19T08:30:10;75.97;;;42.75;;
62419;SDS011;48460;51.616;5.426;2022-08-19T08:32:39;85.13;;;40.80;;
62419;SDS011;48460;51.616;5.426;2022-08-19T08:35:07;80.15;;;41.67;;
62419;SDS011;48460;51.616;5.426;2022-08-19T08:37:37;70.85;;;39.03;;
62419;SDS011;48460;51.616;5.426;2022-08-19T08:40:05;71.63;;;38.25;;
62419;SDS011;48460;51.616;5.426;2022-08-19T08:42:39;70.03;;;36.13;;
62419;SDS011;48460;51.616;5.426;2022-08-19T08:45:16;62.70;;;36.40;;
62419;SDS011;48460;51.616;5.426;2022-08-19T08:47:44;63.83;;;37.22;;
62419;SDS011;48460;51.616;5.426;2022-08-19T08:50:16;64.28;;;37.85;;
62419;SDS011;48460;51.616;5.426;2022-08-19T08:52:50;66.60;;;37.67;;
62419;SDS011;48460;51.616;5.426;2022-08-19T08:55:22;64.30;;;37.03;;
62419;SDS011;48460;51.616;5.426;2022-08-19T09:00:36;62.33;;;37.28;;
62419;SDS011;48460;51.616;5.426;2022-08-19T09:03:03;67.32;;;39.70;;
62419;SDS011;48460;51.616;5.426;2022-08-19T09:17:17;70.75;;;42.38;;
62419;SDS011;48460;51.616;5.426;2022-08-19T09:19:57;85.90;;;44.80;;
62419;SDS011;48460;51.616;5.426;2022-08-19T09:22:32;81.75;;;46.80;;
62419;SDS011;48460;51.616;5.426;2022-08-19T09:24:58;76.72;;;43.78;;
62419;SDS011;48460;51.616;5.426;2022-08-19T09:27:24;78.10;;;46.35;;
62419;SDS011;48460;51.616;5.426;2022-08-19T09:29:50;81.85;;;45.22;;
62419;SDS011;48460;51.616;5.426;2022-08-19T09:32:17;81.70;;;46.60;;
62419;SDS011;48460;51.616;5.426;2022-08-19T09:34:43;78.97;;;43.92;;
62419;SDS011;48460;51.616;5.426;2022-08-19T09:37:09;75.60;;;45.17;;
62419;SDS011;48460;51.616;5.426;2022-08-19T09:39:35;78.05;;;46.40;;
62419;SDS011;48460;51.616;5.426;2022-08-19T09:42:00;81.45;;;45.38;;
62419;SDS011;48460;51.616;5.426;2022-08-19T09:44:28;71.57;;;44.95;;
62419;SDS011;48460;51.616;5.426;2022-08-19T09:46:54;83.15;;;45.30;;
62419;SDS011;48460;51.616;5.426;2022-08-19T09:49:19;83.63;;;46.08;;
62419;SDS011;48460;51.616;5.426;2022-08-19T09:51:49;76.13;;;45.03;;
62419;SDS011;48460;51.616;5.426;2022-08-19T09:54:15;76.28;;;43.33;;
62419;SDS011;48460;51.616;5.426;2022-08-19T09:56:41;70.47;;;39.60;;
62419;SDS011;48460;51.616;5.426;2022-08-19T09:59:06;72.13;;;41.95;;
62419;SDS011;48460;51.616;5.426;2022-08-19T10:01:32;77.35;;;43.90;;
62419;SDS011;48460;51.616;5.426;2022-08-19T10:03:58;68.95;;;41.35;;
62419;SDS011;48460;51.616;5.426;2022-08-19T10:06:26;70.13;;;40.60;;
62419;SDS011;48460;51.616;5.426;2022-08-19T10:08:56;69.13;;;40.78;;
62419;SDS011;48460;51.616;5.426;2022-08-19T10:11:21;75.13;;;43.78;;
62419;SDS011;48460;51.616;5.426;2022-08-19T10:13:47;64.57;;;41.60;;
62419;SDS011;48460;51.616;5.426;2022-08-19T10:16:14;68.10;;;41.60;;
62419;SDS011;48460;51.616;5.426;2022-08-19T10:18:43;66.43;;;39.03;;
62419;SDS011;48460;51.616;5.426;2022-08-19T10:21:13;66.03;;;40.58;;
62419;SDS011;48460;51.616;5.426;2022-08-19T10:23:49;59.00;;;35.33;;
62419;SDS011;48460;51.616;5.426;2022-08-19T10:26:22;57.78;;;33.58;;
62419;SDS011;48460;51.616;5.426;2022-08-19T10:28:52;57.70;;;35.25;;
62419;SDS011;48460;51.616;5.426;2022-08-19T10:31:19;67.18;;;39.17;;
62419;SDS011;48460;51.616;5.426;2022-08-19T10:33:49;64.05;;;40.25;;
62419;SDS011;48460;51.616;5.426;2022-08-19T10:36:18;65.68;;;39.55;;
62419;SDS011;48460;51.616;5.426;2022-08-19T10:38:48;67.68;;;40.10;;
62419;SDS011;48460;51.616;5.426;2022-08-19T10:43:52;67.93;;;38.88;;
62419;SDS011;48460;51.616;5.426;2022-08-19T10:46:20;73.00;;;42.28;;
62419;SDS011;48460;51.616;5.426;2022-08-19T10:48:47;64.60;;;39.75;;
62419;SDS011;48460;51.616;5.426;2022-08-19T10:51:13;64.32;;;40.08;;
62419;SDS011;48460;51.616;5.426;2022-08-19T10:53:57;63.90;;;40.13;;
62419;SDS011;48460;51.616;5.426;2022-08-19T10:56:24;63.67;;;40.80;;
62419;SDS011;48460;51.616;5.426;2022-08-19T10:59:09;67.78;;;39.75;;
62419;SDS011;48460;51.616;5.426;2022-08-19T11:01:38;72.25;;;43.28;;
62419;SDS011;48460;51.616;5.426;2022-08-19T11:04:07;69.53;;;40.83;;
62419;SDS011;48460;51.616;5.426;2022-08-19T11:06:36;63.13;;;40.03;;
62419;SDS011;48460;51.616;5.426;2022-08-19T11:09:06;64.05;;;38.85;;
62419;SDS011;48460;51.616;5.426;2022-08-19T11:11:32;61.42;;;38.45;;
62419;SDS011;48460;51.616;5.426;2022-08-19T11:14:13;64.57;;;40.25;;
62419;SDS011;48460;51.616;5.426;2022-08-19T11:16:40;66.90;;;41.72;;
62419;SDS011;48460;51.616;5.426;2022-08-19T11:19:07;65.18;;;39.42;;
62419;SDS011;48460;51.616;5.426;2022-08-19T11:21:35;65.15;;;40.28;;
62419;SDS011;48460;51.616;5.426;2022-08-19T11:24:05;58.67;;;38.00;;
62419;SDS011;48460;51.616;5.426;2022-08-19T11:26:34;56.95;;;35.67;;
62419;SDS011;48460;51.616;5.426;2022-08-19T11:29:01;66.18;;;38.60;;
62419;SDS011;48460;51.616;5.426;2022-08-19T11:31:30;58.70;;;37.00;;
62419;SDS011;48460;51.616;5.426;2022-08-19T11:33:58;60.95;;;36.63;;
62419;SDS011;48460;51.616;5.426;2022-08-19T11:36:28;52.30;;;34.33;;
62419;SDS011;48460;51.616;5.426;2022-08-19T11:39:00;48.88;;;32.53;;
62419;SDS011;48460;51.616;5.426;2022-08-19T11:41:27;50.13;;;31.83;;
62419;SDS011;48460;51.616;5.426;2022-08-19T11:43:53;45.72;;;31.05;;
62419;SDS011;48460;51.616;5.426;2022-08-19T11:46:20;42.83;;;28.67;;
62419;SDS011;48460;51.616;5.426;2022-08-19T11:48:47;42.80;;;27.50;;
62419;SDS011;48460;51.616;5.426;2022-08-19T11:51:15;43.30;;;28.80;;
62419;SDS011;48460;51.616;5.426;2022-08-19T11:53:43;33.08;;;22.27;;
62419;SDS011;48460;51.616;5.426;2022-08-19T11:56:10;29.95;;;19.85;;
62419;SDS011;48460;51.616;5.426;2022-08-19T11:58:36;37.10;;;24.70;;
62419;SDS011;48460;51.616;5.426;2022-08-19T12:01:05;37.00;;;24.83;;
62419;SDS011;48460;51.616;5.426;2022-08-19T12:03:32;41.20;;;28.70;;
62419;SDS011;48460;51.616;5.426;2022-08-19T12:05:57;36.30;;;25.15;;
62419;SDS011;48460;51.616;5.426;2022-08-19T12:08:22;40.30;;;27.33;;
62419;SDS011;48460;51.616;5.426;2022-08-19T12:10:48;43.72;;;27.55;;
62419;SDS011;48460;51.616;5.426;2022-08-19T12:13:13;44.05;;;28.20;;
62419;SDS011;48460;51.616;5.426;2022-08-19T12:15:43;43.60;;;27.27;;
62419;SDS011;48460;51.616;5.426;2022-08-19T12:18:10;40.08;;;26.17;;
62419;SDS011;48460;51.616;5.426;2022-08-19T12:20:36;38.25;;;26.63;;
62419;SDS011;48460;51.616;5.426;2022-08-19T12:23:04;43.97;;;27.27;;
62419;SDS011;48460;51.616;5.426;2022-08-19T12:25:30;45.72;;;26.70;;
62419;SDS011;48460;51.616;5.426;2022-08-19T12:28:02;41.05;;;26.75;;
62419;SDS011;48460;51.616;5.426;2022-08-19T12:30:28;39.45;;;26.67;;
62419;SDS011;48460;51.616;5.426;2022-08-19T12:32:54;40.13;;;29.10;;
62419;SDS011;48460;51.616;5.426;2022-08-19T12:35:19;38.03;;;25.65;;
62419;SDS011;48460;51.616;5.426;2022-08-19T12:37:45;43.00;;;27.23;;
62419;SDS011;48460;51.616;5.426;2022-08-19T12:40:12;40.50;;;26.83;;
62419;SDS011;48460;51.616;5.426;2022-08-19T12:42:39;44.22;;;28.45;;
62419;SDS011;48460;51.616;5.426;2022-08-19T12:45:09;46.55;;;28.58;;
62419;SDS011;48460;51.616;5.426;2022-08-19T12:47:36;43.42;;;31.20;;
62419;SDS011;48460;51.616;5.426;2022-08-19T12:50:02;45.60;;;32.65;;
62419;SDS011;48460;51.616;5.426;2022-08-19T12:52:28;47.92;;;32.22;;
62419;SDS011;48460;51.616;5.426;2022-08-19T12:54:54;47.97;;;30.42;;
62419;SDS011;48460;51.616;5.426;2022-08-19T12:57:22;41.63;;;29.42;;
62419;SDS011;48460;51.616;5.426;2022-08-19T12:59:52;46.25;;;30.13;;
62419;SDS011;48460;51.616;5.426;2022-08-19T13:02:18;45.22;;;29.73;;
62419;SDS011;48460;51.616;5.426;2022-08-19T13:04:44;42.88;;;30.77;;
62419;SDS011;48460;51.616;5.426;2022-08-19T13:07:10;43.42;;;31.38;;
62419;SDS011;48460;51.616;5.426;2022-08-19T13:09:35;50.05;;;31.95;;
62419;SDS011;48460;51.616;5.426;2022-08-19T13:12:01;48.90;;;33.25;;
62419;SDS011;48460;51.616;5.426;2022-08-19T13:14:28;45.45;;;31.90;;
62419;SDS011;48460;51.616;5.426;2022-08-19T13:16:55;49.50;;;32.00;;
62419;SDS011;48460;51.616;5.426;2022-08-19T13:19:22;52.40;;;32.55;;
62419;SDS011;48460;51.616;5.426;2022-08-19T13:21:49;51.50;;;33.25;;
62419;SDS011;48460;51.616;5.426;2022-08-19T13:24:15;57.00;;;33.92;;
62419;SDS011;48460;51.616;5.426;2022-08-19T13:26:41;49.38;;;33.65;;
62419;SDS011;48460;51.616;5.426;2022-08-19T13:29:06;55.28;;;34.65;;
62419;SDS011;48460;51.616;5.426;2022-08-19T13:31:50;51.90;;;36.63;;
62419;SDS011;48460;51.616;5.426;2022-08-19T13:34:34;52.85;;;33.38;;
62419;SDS011;48460;51.616;5.426;2022-08-19T13:37:02;52.78;;;36.20;;
62419;SDS011;48460;51.616;5.426;2022-08-19T13:39:32;53.50;;;35.97;;
62419;SDS011;48460;51.616;5.426;2022-08-19T13:41:58;56.25;;;36.95;;
62419;SDS011;48460;51.616;5.426;2022-08-19T13:44:26;52.17;;;35.22;;
62419;SDS011;48460;51.616;5.426;2022-08-19T13:46:54;51.50;;;34.70;;
62419;SDS011;48460;51.616;5.426;2022-08-19T13:49:25;49.88;;;34.10;;
62419;SDS011;48460;51.616;5.426;2022-08-19T13:51:50;50.03;;;32.72;;
62419;SDS011;48460;51.616;5.426;2022-08-19T13:54:15;49.45;;;30.65;;
62419;SDS011;48460;51.616;5.426;2022-08-19T13:56:42;53.45;;;33.85;;
62419;SDS011;48460;51.616;5.426;2022-08-19T13:59:08;47.60;;;31.55;;
62419;SDS011;48460;51.616;5.426;2022-08-19T14:01:34;49.03;;;31.63;;
62419;SDS011;48460;51.616;5.426;2022-08-19T14:04:00;47.65;;;30.17;;
62419;SDS011;48460;51.616;5.426;2022-08-19T14:06:26;45.63;;;29.50;;
62419;SDS011;48460;51.616;5.426;2022-08-19T14:08:51;44.60;;;28.20;;
62419;SDS011;48460;51.616;5.426;2022-08-19T14:11:17;41.78;;;27.63;;
62419;SDS011;48460;51.616;5.426;2022-08-19T14:13:43;40.50;;;25.45;;
62419;SDS011;48460;51.616;5.426;2022-08-19T14:16:09;37.55;;;24.48;;
62419;SDS011;48460;51.616;5.426;2022-08-19T14:18:37;30.48;;;22.30;;
62419;SDS011;48460;51.616;5.426;2022-08-19T14:21:03;31.73;;;21.20;;
62419;SDS011;48460;51.616;5.426;2022-08-19T14:23:30;29.27;;;19.70;;
62419;SDS011;48460;51.616;5.426;2022-08-19T14:26:09;28.02;;;21.23;;
62419;SDS011;48460;51.616;5.426;2022-08-19T14:28:37;26.58;;;18.40;;
62419;SDS011;48460;51.616;5.426;2022-08-19T14:31:06;26.42;;;18.02;;
62419;SDS011;48460;51.616;5.426;2022-08-19T14:33:33;28.05;;;18.48;;
62419;SDS011;48460;51.616;5.426;2022-08-19T14:35:58;26.73;;;18.52;;
62419;SDS011;48460;51.616;5.426;2022-08-19T14:38:25;30.58;;;19.30;;
62419;SDS011;48460;51.616;5.426;2022-08-19T14:40:51;23.20;;;17.05;;
62419;SDS011;48460;51.616;5.426;2022-08-19T14:43:17;28.17;;;18.70;;
62419;SDS011;48460;51.616;5.426;2022-08-19T14:45:43;29.60;;;19.05;;
62419;SDS011;48460;51.616;5.426;2022-08-19T14:48:09;27.20;;;18.77;;
62419;SDS011;48460;51.616;5.426;2022-08-19T14:50:35;24.70;;;17.75;;
62419;SDS011;48460;51.616;5.426;2022-08-19T14:53:03;23.80;;;16.80;;
62419;SDS011;48460;51.616;5.426;2022-08-19T14:55:31;24.65;;;16.60;;
62419;SDS011;48460;51.616;5.426;2022-08-19T14:57:57;23.05;;;16.80;;